sensor_id;sensor_type;location;lat;lon;timestamp;P1;durP1;ratioP1;P2;durP2;ratioP2
73456;SDS011;61691;53.072;6.582;2023-05-06T00:01:40;18.75;;;6.93;;
73456;SDS011;61691;53.072;6.582;2023-05-06T00:04:07;18.77;;;7.10;;
73456;SDS011;61691;53.072;6.582;2023-05-06T00:06:34;18.60;;;6.78;;
73456;SDS011;61691;53.072;6.582;2023-05-06T00:09:01;21.23;;;7.25;;
73456;SDS011;61691;53.072;6.582;2023-05-06T00:11:27;17.98;;;7.30;;
73456;SDS011;61691;53.072;6.582;2023-05-06T00:13:54;17.75;;;6.90;;
73456;SDS011;61691;53.072;6.582;2023-05-06T00:16:21;18.48;;;6.50;;
73456;SDS011;61691;53.072;6.582;2023-05-06T00:18:48;17.42;;;6.95;;
73456;SDS011;61691;53.072;6.582;2023-05-06T00:21:15;18.02;;;7.13;;
73456;SDS011;61691;53.072;6.582;2023-05-06T00:23:41;18.00;;;7.13;;
73456;SDS011;61691;53.072;6.582;2023-05-06T00:26:08;18.88;;;7.53;;
73456;SDS011;61691;53.072;6.582;2023-05-06T00:28:35;17.58;;;6.75;;
73456;SDS011;61691;53.072;6.582;2023-05-06T00:31:02;16.85;;;6.57;;
73456;SDS011;61691;53.072;6.582;2023-05-06T00:33:29;16.50;;;6.95;;
73456;SDS011;61691;53.072;6.582;2023-05-06T00:35:56;20.23;;;7.03;;
73456;SDS011;61691;53.072;6.582;2023-05-06T00:38:22;18.75;;;7.03;;
73456;SDS011;61691;53.072;6.582;2023-05-06T00:40:49;17.65;;;7.50;;
73456;SDS011;61691;53.072;6.582;2023-05-06T00:43:16;18.88;;;7.15;;
73456;SDS011;61691;53.072;6.582;2023-05-06T00:45:43;19.00;;;7.57;;
73456;SDS011;61691;53.072;6.582;2023-05-06T00:48:09;18.23;;;7.78;;
73456;SDS011;61691;53.072;6.582;2023-05-06T00:50:36;17.00;;;7.20;;
73456;SDS011;61691;53.072;6.582;2023-05-06T00:53:05;19.88;;;8.02;;
73456;SDS011;61691;53.072;6.582;2023-05-06T00:55:34;17.13;;;6.90;;
73456;SDS011;61691;53.072;6.582;2023-05-06T00:58:02;19.65;;;8.07;;
73456;SDS011;61691;53.072;6.582;2023-05-06T01:00:29;20.25;;;8.00;;
73456;SDS011;61691;53.072;6.582;2023-05-06T01:02:56;19.13;;;7.85;;
73456;SDS011;61691;53.072;6.582;2023-05-06T01:05:22;18.98;;;8.07;;
73456;SDS011;61691;53.072;6.582;2023-05-06T01:10:57;19.85;;;7.38;;
73456;SDS011;61691;53.072;6.582;2023-05-06T01:13:39;17.00;;;6.60;;
73456;SDS011;61691;53.072;6.582;2023-05-06T01:16:12;19.42;;;8.07;;
73456;SDS011;61691;53.072;6.582;2023-05-06T01:18:42;19.20;;;8.53;;
73456;SDS011;61691;53.072;6.582;2023-05-06T01:21:10;19.48;;;8.23;;
73456;SDS011;61691;53.072;6.582;2023-05-06T01:23:51;19.48;;;8.65;;
73456;SDS011;61691;53.072;6.582;2023-05-06T01:26:18;19.23;;;8.75;;
73456;SDS011;61691;53.072;6.582;2023-05-06T01:28:45;19.48;;;7.93;;
73456;SDS011;61691;53.072;6.582;2023-05-06T01:31:12;18.85;;;7.93;;
73456;SDS011;61691;53.072;6.582;2023-05-06T01:34:17;18.60;;;8.10;;
73456;SDS011;61691;53.072;6.582;2023-05-06T01:36:55;18.20;;;7.60;;
73456;SDS011;61691;53.072;6.582;2023-05-06T01:39:29;19.88;;;7.72;;
73456;SDS011;61691;53.072;6.582;2023-05-06T01:41:58;18.63;;;8.23;;
73456;SDS011;61691;53.072;6.582;2023-05-06T01:44:27;18.13;;;7.70;;
73456;SDS011;61691;53.072;6.582;2023-05-06T01:46:58;17.15;;;6.90;;
73456;SDS011;61691;53.072;6.582;2023-05-06T01:49:26;18.15;;;7.85;;
73456;SDS011;61691;53.072;6.582;2023-05-06T01:51:55;19.88;;;7.28;;
73456;SDS011;61691;53.072;6.582;2023-05-06T01:54:22;18.77;;;7.80;;
73456;SDS011;61691;53.072;6.582;2023-05-06T01:56:49;17.48;;;7.32;;
73456;SDS011;61691;53.072;6.582;2023-05-06T01:59:15;18.73;;;8.00;;
73456;SDS011;61691;53.072;6.582;2023-05-06T02:01:42;20.83;;;8.50;;
73456;SDS011;61691;53.072;6.582;2023-05-06T02:04:09;19.08;;;8.27;;
73456;SDS011;61691;53.072;6.582;2023-05-06T02:06:35;18.27;;;7.90;;
73456;SDS011;61691;53.072;6.582;2023-05-06T02:09:02;18.90;;;7.80;;
73456;SDS011;61691;53.072;6.582;2023-05-06T02:11:29;19.35;;;7.75;;
73456;SDS011;61691;53.072;6.582;2023-05-06T02:13:56;19.83;;;7.88;;
73456;SDS011;61691;53.072;6.582;2023-05-06T02:16:26;18.85;;;8.15;;
73456;SDS011;61691;53.072;6.582;2023-05-06T02:18:53;20.50;;;8.15;;
73456;SDS011;61691;53.072;6.582;2023-05-06T02:21:20;18.33;;;8.13;;
73456;SDS011;61691;53.072;6.582;2023-05-06T02:23:48;18.45;;;8.02;;
73456;SDS011;61691;53.072;6.582;2023-05-06T02:26:15;18.42;;;8.30;;
73456;SDS011;61691;53.072;6.582;2023-05-06T02:28:42;18.08;;;7.90;;
73456;SDS011;61691;53.072;6.582;2023-05-06T02:31:11;22.75;;;8.60;;
73456;SDS011;61691;53.072;6.582;2023-05-06T02:33:40;18.30;;;8.18;;
73456;SDS011;61691;53.072;6.582;2023-05-06T02:36:07;20.38;;;8.90;;
73456;SDS011;61691;53.072;6.582;2023-05-06T02:38:33;22.25;;;9.52;;
73456;SDS011;61691;53.072;6.582;2023-05-06T02:41:00;20.90;;;9.90;;
73456;SDS011;61691;53.072;6.582;2023-05-06T02:43:27;19.00;;;8.00;;
73456;SDS011;61691;53.072;6.582;2023-05-06T02:45:54;20.00;;;8.25;;
73456;SDS011;61691;53.072;6.582;2023-05-06T02:48:20;19.17;;;8.38;;
73456;SDS011;61691;53.072;6.582;2023-05-06T02:50:48;18.33;;;7.95;;
73456;SDS011;61691;53.072;6.582;2023-05-06T02:53:15;19.67;;;7.88;;
73456;SDS011;61691;53.072;6.582;2023-05-06T02:55:42;18.50;;;8.27;;
73456;SDS011;61691;53.072;6.582;2023-05-06T02:58:09;20.10;;;8.73;;
73456;SDS011;61691;53.072;6.582;2023-05-06T03:00:35;20.38;;;8.43;;
73456;SDS011;61691;53.072;6.582;2023-05-06T03:03:02;18.23;;;8.55;;
73456;SDS011;61691;53.072;6.582;2023-05-06T03:05:29;20.30;;;9.85;;
73456;SDS011;61691;53.072;6.582;2023-05-06T03:07:55;21.15;;;9.20;;
73456;SDS011;61691;53.072;6.582;2023-05-06T03:10:22;19.02;;;9.13;;
73456;SDS011;61691;53.072;6.582;2023-05-06T03:12:49;19.52;;;8.32;;
73456;SDS011;61691;53.072;6.582;2023-05-06T03:15:16;21.65;;;9.43;;
73456;SDS011;61691;53.072;6.582;2023-05-06T03:17:44;20.42;;;9.68;;
73456;SDS011;61691;53.072;6.582;2023-05-06T03:20:12;19.77;;;9.18;;
73456;SDS011;61691;53.072;6.582;2023-05-06T03:22:39;20.65;;;8.75;;
73456;SDS011;61691;53.072;6.582;2023-05-06T03:25:07;19.67;;;8.52;;
73456;SDS011;61691;53.072;6.582;2023-05-06T03:27:34;19.35;;;8.27;;
73456;SDS011;61691;53.072;6.582;2023-05-06T03:30:02;18.73;;;8.48;;
73456;SDS011;61691;53.072;6.582;2023-05-06T03:32:29;19.20;;;8.63;;
73456;SDS011;61691;53.072;6.582;2023-05-06T03:34:56;19.95;;;9.30;;
73456;SDS011;61691;53.072;6.582;2023-05-06T03:37:23;19.50;;;9.35;;
73456;SDS011;61691;53.072;6.582;2023-05-06T03:39:49;18.63;;;8.77;;
73456;SDS011;61691;53.072;6.582;2023-05-06T03:42:16;20.80;;;9.40;;
73456;SDS011;61691;53.072;6.582;2023-05-06T03:44:43;21.15;;;9.35;;
73456;SDS011;61691;53.072;6.582;2023-05-06T03:47:09;19.95;;;8.88;;
73456;SDS011;61691;53.072;6.582;2023-05-06T03:49:36;19.30;;;7.78;;
73456;SDS011;61691;53.072;6.582;2023-05-06T03:52:03;31.13;;;6.50;;
73456;SDS011;61691;53.072;6.582;2023-05-06T03:54:30;25.95;;;6.53;;
73456;SDS011;61691;53.072;6.582;2023-05-06T03:56:57;22.80;;;6.30;;
73456;SDS011;61691;53.072;6.582;2023-05-06T03:59:23;18.73;;;6.03;;
73456;SDS011;61691;53.072;6.582;2023-05-06T04:01:50;36.03;;;7.20;;
73456;SDS011;61691;53.072;6.582;2023-05-06T04:04:17;21.20;;;6.55;;
73456;SDS011;61691;53.072;6.582;2023-05-06T04:06:44;15.77;;;5.32;;
73456;SDS011;61691;53.072;6.582;2023-05-06T04:09:10;17.90;;;5.82;;
73456;SDS011;61691;53.072;6.582;2023-05-06T04:11:37;20.35;;;6.88;;
73456;SDS011;61691;53.072;6.582;2023-05-06T04:14:04;22.10;;;6.50;;
73456;SDS011;61691;53.072;6.582;2023-05-06T04:16:30;16.63;;;6.40;;
73456;SDS011;61691;53.072;6.582;2023-05-06T04:18:57;31.75;;;7.07;;
73456;SDS011;61691;53.072;6.582;2023-05-06T04:21:24;25.70;;;5.72;;
73456;SDS011;61691;53.072;6.582;2023-05-06T04:23:50;17.02;;;6.00;;
73456;SDS011;61691;53.072;6.582;2023-05-06T04:26:17;15.40;;;5.15;;
73456;SDS011;61691;53.072;6.582;2023-05-06T04:28:44;15.82;;;5.85;;
73456;SDS011;61691;53.072;6.582;2023-05-06T04:31:11;17.67;;;6.43;;
73456;SDS011;61691;53.072;6.582;2023-05-06T04:33:39;16.15;;;5.60;;
73456;SDS011;61691;53.072;6.582;2023-05-06T04:36:07;16.27;;;6.07;;
73456;SDS011;61691;53.072;6.582;2023-05-06T04:38:33;17.65;;;6.50;;
73456;SDS011;61691;53.072;6.582;2023-05-06T04:41:02;15.88;;;5.63;;
73456;SDS011;61691;53.072;6.582;2023-05-06T04:43:30;17.10;;;5.07;;
73456;SDS011;61691;53.072;6.582;2023-05-06T04:45:58;17.58;;;6.20;;
73456;SDS011;61691;53.072;6.582;2023-05-06T04:48:24;15.45;;;5.45;;
73456;SDS011;61691;53.072;6.582;2023-05-06T04:50:51;16.48;;;6.03;;
73456;SDS011;61691;53.072;6.582;2023-05-06T04:53:18;15.48;;;5.35;;
73456;SDS011;61691;53.072;6.582;2023-05-06T04:55:45;14.35;;;5.03;;
73456;SDS011;61691;53.072;6.582;2023-05-06T04:58:11;15.18;;;5.45;;
73456;SDS011;61691;53.072;6.582;2023-05-06T05:00:38;16.90;;;4.72;;
73456;SDS011;61691;53.072;6.582;2023-05-06T05:03:05;13.68;;;4.18;;
73456;SDS011;61691;53.072;6.582;2023-05-06T05:05:32;14.73;;;4.90;;
73456;SDS011;61691;53.072;6.582;2023-05-06T05:08:01;16.95;;;5.85;;
73456;SDS011;61691;53.072;6.582;2023-05-06T05:10:28;15.90;;;5.82;;
73456;SDS011;61691;53.072;6.582;2023-05-06T05:12:55;16.75;;;5.97;;
73456;SDS011;61691;53.072;6.582;2023-05-06T05:15:22;18.17;;;7.47;;
73456;SDS011;61691;53.072;6.582;2023-05-06T05:17:49;19.08;;;8.20;;
73456;SDS011;61691;53.072;6.582;2023-05-06T05:20:16;20.73;;;9.07;;
73456;SDS011;61691;53.072;6.582;2023-05-06T05:22:43;21.30;;;10.23;;
73456;SDS011;61691;53.072;6.582;2023-05-06T05:25:09;22.63;;;9.88;;
73456;SDS011;61691;53.072;6.582;2023-05-06T05:27:36;20.58;;;9.38;;
73456;SDS011;61691;53.072;6.582;2023-05-06T05:30:03;22.10;;;10.18;;
73456;SDS011;61691;53.072;6.582;2023-05-06T05:32:30;20.88;;;10.23;;
73456;SDS011;61691;53.072;6.582;2023-05-06T05:34:57;20.55;;;10.20;;
73456;SDS011;61691;53.072;6.582;2023-05-06T05:37:23;19.95;;;9.18;;
73456;SDS011;61691;53.072;6.582;2023-05-06T05:39:50;22.38;;;10.45;;
73456;SDS011;61691;53.072;6.582;2023-05-06T05:42:17;21.80;;;10.23;;
73456;SDS011;61691;53.072;6.582;2023-05-06T05:44:43;23.25;;;10.45;;
73456;SDS011;61691;53.072;6.582;2023-05-06T05:47:11;24.15;;;11.13;;
73456;SDS011;61691;53.072;6.582;2023-05-06T05:49:38;24.67;;;12.15;;
73456;SDS011;61691;53.072;6.582;2023-05-06T05:52:04;23.10;;;11.23;;
73456;SDS011;61691;53.072;6.582;2023-05-06T05:54:32;24.42;;;11.38;;
73456;SDS011;61691;53.072;6.582;2023-05-06T05:56:59;25.05;;;11.95;;
73456;SDS011;61691;53.072;6.582;2023-05-06T05:59:26;25.50;;;12.13;;
73456;SDS011;61691;53.072;6.582;2023-05-06T06:01:53;24.92;;;12.95;;
73456;SDS011;61691;53.072;6.582;2023-05-06T06:04:20;25.65;;;13.10;;
73456;SDS011;61691;53.072;6.582;2023-05-06T06:06:47;24.00;;;12.65;;
73456;SDS011;61691;53.072;6.582;2023-05-06T06:09:14;24.70;;;12.80;;
73456;SDS011;61691;53.072;6.582;2023-05-06T06:11:43;23.15;;;10.85;;
73456;SDS011;61691;53.072;6.582;2023-05-06T06:14:09;25.05;;;11.93;;
73456;SDS011;61691;53.072;6.582;2023-05-06T06:16:36;24.08;;;11.95;;
73456;SDS011;61691;53.072;6.582;2023-05-06T06:19:03;25.67;;;13.00;;
73456;SDS011;61691;53.072;6.582;2023-05-06T06:21:30;26.23;;;13.40;;
73456;SDS011;61691;53.072;6.582;2023-05-06T06:23:57;25.40;;;13.07;;
73456;SDS011;61691;53.072;6.582;2023-05-06T06:26:23;25.67;;;13.07;;
73456;SDS011;61691;53.072;6.582;2023-05-06T06:28:50;26.50;;;13.52;;
73456;SDS011;61691;53.072;6.582;2023-05-06T06:31:17;25.67;;;13.90;;
73456;SDS011;61691;53.072;6.582;2023-05-06T06:33:44;25.85;;;13.70;;
73456;SDS011;61691;53.072;6.582;2023-05-06T06:36:10;24.70;;;12.52;;
73456;SDS011;61691;53.072;6.582;2023-05-06T06:38:37;23.25;;;11.93;;
73456;SDS011;61691;53.072;6.582;2023-05-06T06:41:03;27.92;;;13.63;;
73456;SDS011;61691;53.072;6.582;2023-05-06T06:43:30;24.25;;;12.57;;
73456;SDS011;61691;53.072;6.582;2023-05-06T06:45:57;24.75;;;13.52;;
73456;SDS011;61691;53.072;6.582;2023-05-06T06:48:24;24.23;;;12.63;;
73456;SDS011;61691;53.072;6.582;2023-05-06T06:50:51;25.40;;;13.38;;
73456;SDS011;61691;53.072;6.582;2023-05-06T06:53:18;25.88;;;13.25;;
73456;SDS011;61691;53.072;6.582;2023-05-06T06:55:45;24.60;;;12.68;;
73456;SDS011;61691;53.072;6.582;2023-05-06T06:58:12;24.55;;;13.20;;
73456;SDS011;61691;53.072;6.582;2023-05-06T07:00:39;25.17;;;13.20;;
73456;SDS011;61691;53.072;6.582;2023-05-06T07:03:06;23.98;;;12.80;;
73456;SDS011;61691;53.072;6.582;2023-05-06T07:05:32;25.83;;;13.73;;
73456;SDS011;61691;53.072;6.582;2023-05-06T07:07:59;24.85;;;12.95;;
73456;SDS011;61691;53.072;6.582;2023-05-06T07:10:26;23.63;;;13.05;;
73456;SDS011;61691;53.072;6.582;2023-05-06T07:12:52;26.00;;;12.52;;
73456;SDS011;61691;53.072;6.582;2023-05-06T07:15:19;25.13;;;12.77;;
73456;SDS011;61691;53.072;6.582;2023-05-06T07:17:46;23.17;;;12.73;;
73456;SDS011;61691;53.072;6.582;2023-05-06T07:20:13;25.23;;;12.57;;
73456;SDS011;61691;53.072;6.582;2023-05-06T07:22:39;24.02;;;12.18;;
73456;SDS011;61691;53.072;6.582;2023-05-06T07:25:06;22.95;;;11.90;;
73456;SDS011;61691;53.072;6.582;2023-05-06T07:27:34;24.50;;;12.30;;
73456;SDS011;61691;53.072;6.582;2023-05-06T07:30:00;23.48;;;12.18;;
73456;SDS011;61691;53.072;6.582;2023-05-06T07:32:28;23.48;;;12.55;;
73456;SDS011;61691;53.072;6.582;2023-05-06T07:34:54;23.30;;;12.27;;
73456;SDS011;61691;53.072;6.582;2023-05-06T07:37:21;21.77;;;11.40;;
73456;SDS011;61691;53.072;6.582;2023-05-06T07:39:48;23.88;;;12.23;;
73456;SDS011;61691;53.072;6.582;2023-05-06T07:42:14;22.58;;;11.63;;
73456;SDS011;61691;53.072;6.582;2023-05-06T07:44:41;21.33;;;10.68;;
73456;SDS011;61691;53.072;6.582;2023-05-06T07:47:07;21.73;;;10.57;;
73456;SDS011;61691;53.072;6.582;2023-05-06T07:49:35;23.10;;;10.07;;
73456;SDS011;61691;53.072;6.582;2023-05-06T07:52:01;21.70;;;10.77;;
73456;SDS011;61691;53.072;6.582;2023-05-06T07:54:29;21.20;;;11.13;;
73456;SDS011;61691;53.072;6.582;2023-05-06T07:56:57;21.15;;;10.50;;
73456;SDS011;61691;53.072;6.582;2023-05-06T07:59:23;20.90;;;10.10;;
73456;SDS011;61691;53.072;6.582;2023-05-06T08:01:50;18.77;;;8.88;;
73456;SDS011;61691;53.072;6.582;2023-05-06T08:04:17;20.02;;;9.25;;
73456;SDS011;61691;53.072;6.582;2023-05-06T08:06:44;19.38;;;8.65;;
73456;SDS011;61691;53.072;6.582;2023-05-06T08:09:11;18.77;;;8.57;;
73456;SDS011;61691;53.072;6.582;2023-05-06T08:11:48;19.02;;;7.85;;
73456;SDS011;61691;53.072;6.582;2023-05-06T08:14:15;17.23;;;7.20;;
73456;SDS011;61691;53.072;6.582;2023-05-06T08:16:41;17.73;;;7.55;;
73456;SDS011;61691;53.072;6.582;2023-05-06T08:19:08;18.08;;;7.30;;
73456;SDS011;61691;53.072;6.582;2023-05-06T08:21:35;17.55;;;7.63;;
73456;SDS011;61691;53.072;6.582;2023-05-06T08:24:01;17.92;;;7.60;;
73456;SDS011;61691;53.072;6.582;2023-05-06T08:26:28;18.52;;;7.40;;
73456;SDS011;61691;53.072;6.582;2023-05-06T08:28:55;17.38;;;6.78;;
73456;SDS011;61691;53.072;6.582;2023-05-06T08:31:23;18.25;;;7.38;;
73456;SDS011;61691;53.072;6.582;2023-05-06T08:33:49;18.38;;;7.47;;
73456;SDS011;61691;53.072;6.582;2023-05-06T08:36:19;18.55;;;8.07;;
73456;SDS011;61691;53.072;6.582;2023-05-06T08:38:47;18.27;;;6.68;;
73456;SDS011;61691;53.072;6.582;2023-05-06T08:41:16;17.23;;;6.53;;
73456;SDS011;61691;53.072;6.582;2023-05-06T08:43:45;16.00;;;5.97;;
73456;SDS011;61691;53.072;6.582;2023-05-06T08:46:14;16.35;;;5.80;;
73456;SDS011;61691;53.072;6.582;2023-05-06T08:48:42;17.50;;;6.63;;
73456;SDS011;61691;53.072;6.582;2023-05-06T08:51:09;15.80;;;5.30;;
73456;SDS011;61691;53.072;6.582;2023-05-06T08:53:41;16.30;;;5.15;;
73456;SDS011;61691;53.072;6.582;2023-05-06T08:56:11;14.85;;;4.35;;
73456;SDS011;61691;53.072;6.582;2023-05-06T08:58:40;16.27;;;4.78;;
73456;SDS011;61691;53.072;6.582;2023-05-06T09:01:10;16.48;;;4.78;;
73456;SDS011;61691;53.072;6.582;2023-05-06T09:03:37;14.75;;;4.38;;
73456;SDS011;61691;53.072;6.582;2023-05-06T09:06:04;15.02;;;4.45;;
73456;SDS011;61691;53.072;6.582;2023-05-06T09:08:31;15.00;;;4.40;;
73456;SDS011;61691;53.072;6.582;2023-05-06T09:10:57;15.15;;;5.13;;
73456;SDS011;61691;53.072;6.582;2023-05-06T09:13:24;17.15;;;6.43;;
73456;SDS011;61691;53.072;6.582;2023-05-06T09:15:52;17.67;;;6.13;;
73456;SDS011;61691;53.072;6.582;2023-05-06T09:18:21;19.88;;;6.40;;
73456;SDS011;61691;53.072;6.582;2023-05-06T09:20:48;17.63;;;6.22;;
73456;SDS011;61691;53.072;6.582;2023-05-06T09:23:16;16.27;;;5.82;;
73456;SDS011;61691;53.072;6.582;2023-05-06T09:25:43;16.30;;;5.10;;
73456;SDS011;61691;53.072;6.582;2023-05-06T09:28:12;18.05;;;6.30;;
73456;SDS011;61691;53.072;6.582;2023-05-06T09:30:39;16.40;;;5.80;;
73456;SDS011;61691;53.072;6.582;2023-05-06T09:33:09;19.20;;;5.65;;
73456;SDS011;61691;53.072;6.582;2023-05-06T09:35:41;18.25;;;5.78;;
73456;SDS011;61691;53.072;6.582;2023-05-06T09:38:09;17.73;;;6.88;;
73456;SDS011;61691;53.072;6.582;2023-05-06T09:40:36;18.48;;;6.20;;
73456;SDS011;61691;53.072;6.582;2023-05-06T09:43:04;16.50;;;6.25;;
73456;SDS011;61691;53.072;6.582;2023-05-06T09:45:31;17.65;;;6.47;;
73456;SDS011;61691;53.072;6.582;2023-05-06T09:47:58;17.05;;;6.35;;
73456;SDS011;61691;53.072;6.582;2023-05-06T09:50:26;19.20;;;7.68;;
73456;SDS011;61691;53.072;6.582;2023-05-06T09:52:53;18.65;;;7.25;;
73456;SDS011;61691;53.072;6.582;2023-05-06T09:55:21;17.35;;;6.63;;
73456;SDS011;61691;53.072;6.582;2023-05-06T09:57:51;17.75;;;7.22;;
73456;SDS011;61691;53.072;6.582;2023-05-06T10:00:19;16.70;;;6.40;;
73456;SDS011;61691;53.072;6.582;2023-05-06T10:02:52;17.63;;;6.63;;
73456;SDS011;61691;53.072;6.582;2023-05-06T10:05:20;17.92;;;6.85;;
73456;SDS011;61691;53.072;6.582;2023-05-06T10:07:48;17.85;;;6.35;;
73456;SDS011;61691;53.072;6.582;2023-05-06T10:10:17;17.35;;;6.40;;
73456;SDS011;61691;53.072;6.582;2023-05-06T10:12:44;17.42;;;6.82;;
73456;SDS011;61691;53.072;6.582;2023-05-06T10:15:11;18.67;;;6.70;;
73456;SDS011;61691;53.072;6.582;2023-05-06T10:17:39;18.05;;;6.80;;
73456;SDS011;61691;53.072;6.582;2023-05-06T10:20:10;19.48;;;7.00;;
73456;SDS011;61691;53.072;6.582;2023-05-06T10:22:47;18.23;;;6.65;;
73456;SDS011;61691;53.072;6.582;2023-05-06T10:25:34;16.85;;;6.43;;
73456;SDS011;61691;53.072;6.582;2023-05-06T10:28:07;17.83;;;6.70;;
73456;SDS011;61691;53.072;6.582;2023-05-06T10:30:44;15.95;;;5.55;;
73456;SDS011;61691;53.072;6.582;2023-05-06T10:33:13;19.67;;;6.15;;
73456;SDS011;61691;53.072;6.582;2023-05-06T10:38:21;18.40;;;6.68;;
73456;SDS011;61691;53.072;6.582;2023-05-06T10:40:52;17.10;;;6.40;;
73456;SDS011;61691;53.072;6.582;2023-05-06T10:43:23;17.65;;;6.45;;
73456;SDS011;61691;53.072;6.582;2023-05-06T10:45:59;17.73;;;6.28;;
73456;SDS011;61691;53.072;6.582;2023-05-06T10:51:37;18.67;;;7.10;;
73456;SDS011;61691;53.072;6.582;2023-05-06T10:59:26;18.58;;;7.25;;
73456;SDS011;61691;53.072;6.582;2023-05-06T11:01:57;20.13;;;8.05;;
73456;SDS011;61691;53.072;6.582;2023-05-06T11:04:33;18.73;;;7.43;;
73456;SDS011;61691;53.072;6.582;2023-05-06T11:07:10;18.08;;;7.38;;
73456;SDS011;61691;53.072;6.582;2023-05-06T11:12:21;18.52;;;6.55;;
73456;SDS011;61691;53.072;6.582;2023-05-06T11:15:18;17.85;;;7.07;;
73456;SDS011;61691;53.072;6.582;2023-05-06T11:17:52;17.55;;;7.15;;
73456;SDS011;61691;53.072;6.582;2023-05-06T11:20:22;20.00;;;7.53;;
73456;SDS011;61691;53.072;6.582;2023-05-06T11:22:51;18.60;;;7.90;;
73456;SDS011;61691;53.072;6.582;2023-05-06T11:25:37;18.55;;;7.07;;
73456;SDS011;61691;53.072;6.582;2023-05-06T11:28:10;19.95;;;8.60;;
73456;SDS011;61691;53.072;6.582;2023-05-06T11:30:42;19.95;;;7.72;;
73456;SDS011;61691;53.072;6.582;2023-05-06T11:33:18;18.30;;;7.85;;
73456;SDS011;61691;53.072;6.582;2023-05-06T11:35:49;19.25;;;8.18;;
73456;SDS011;61691;53.072;6.582;2023-05-06T11:38:16;21.13;;;8.70;;
73456;SDS011;61691;53.072;6.582;2023-05-06T11:40:42;21.40;;;9.77;;
73456;SDS011;61691;53.072;6.582;2023-05-06T11:43:10;19.42;;;8.80;;
73456;SDS011;61691;53.072;6.582;2023-05-06T11:45:43;19.90;;;9.30;;
73456;SDS011;61691;53.072;6.582;2023-05-06T11:48:12;21.67;;;9.93;;
73456;SDS011;61691;53.072;6.582;2023-05-06T11:50:47;22.25;;;10.40;;
73456;SDS011;61691;53.072;6.582;2023-05-06T11:53:16;21.75;;;10.73;;
73456;SDS011;61691;53.072;6.582;2023-05-06T11:55:44;21.42;;;10.70;;
73456;SDS011;61691;53.072;6.582;2023-05-06T11:58:26;21.30;;;11.07;;
73456;SDS011;61691;53.072;6.582;2023-05-06T12:00:57;22.58;;;11.85;;
73456;SDS011;61691;53.072;6.582;2023-05-06T12:03:27;22.48;;;11.07;;
73456;SDS011;61691;53.072;6.582;2023-05-06T12:05:55;24.08;;;11.82;;
73456;SDS011;61691;53.072;6.582;2023-05-06T12:08:23;22.52;;;11.30;;
73456;SDS011;61691;53.072;6.582;2023-05-06T12:10:54;21.80;;;11.10;;
73456;SDS011;61691;53.072;6.582;2023-05-06T12:15:52;22.10;;;10.70;;
73456;SDS011;61691;53.072;6.582;2023-05-06T12:18:20;22.23;;;10.45;;
73456;SDS011;61691;53.072;6.582;2023-05-06T12:20:48;22.33;;;10.52;;
73456;SDS011;61691;53.072;6.582;2023-05-06T12:23:15;23.42;;;10.93;;
73456;SDS011;61691;53.072;6.582;2023-05-06T12:25:42;21.38;;;10.57;;
73456;SDS011;61691;53.072;6.582;2023-05-06T12:28:15;23.67;;;12.00;;
73456;SDS011;61691;53.072;6.582;2023-05-06T12:30:43;22.15;;;10.85;;
73456;SDS011;61691;53.072;6.582;2023-05-06T12:33:11;20.98;;;9.15;;
73456;SDS011;61691;53.072;6.582;2023-05-06T12:35:39;20.48;;;8.55;;
73456;SDS011;61691;53.072;6.582;2023-05-06T12:38:10;17.42;;;6.55;;
73456;SDS011;61691;53.072;6.582;2023-05-06T12:40:38;16.42;;;6.20;;
73456;SDS011;61691;53.072;6.582;2023-05-06T12:43:06;19.17;;;7.65;;
73456;SDS011;61691;53.072;6.582;2023-05-06T12:45:34;17.10;;;6.53;;
73456;SDS011;61691;53.072;6.582;2023-05-06T12:48:01;16.33;;;6.00;;
73456;SDS011;61691;53.072;6.582;2023-05-06T12:50:39;17.02;;;5.63;;
73456;SDS011;61691;53.072;6.582;2023-05-06T12:53:08;17.88;;;5.90;;
73456;SDS011;61691;53.072;6.582;2023-05-06T12:55:36;19.67;;;6.90;;
73456;SDS011;61691;53.072;6.582;2023-05-06T12:58:13;21.70;;;7.70;;
73456;SDS011;61691;53.072;6.582;2023-05-06T13:00:41;21.85;;;7.22;;
73456;SDS011;61691;53.072;6.582;2023-05-06T13:03:08;18.05;;;6.97;;
73456;SDS011;61691;53.072;6.582;2023-05-06T13:05:36;18.15;;;4.85;;
73456;SDS011;61691;53.072;6.582;2023-05-06T13:08:03;16.45;;;4.38;;
73456;SDS011;61691;53.072;6.582;2023-05-06T13:10:31;15.70;;;4.80;;
73456;SDS011;61691;53.072;6.582;2023-05-06T13:12:58;17.13;;;4.93;;
73456;SDS011;61691;53.072;6.582;2023-05-06T13:15:24;14.85;;;4.40;;
73456;SDS011;61691;53.072;6.582;2023-05-06T13:17:52;16.58;;;5.38;;
73456;SDS011;61691;53.072;6.582;2023-05-06T13:20:19;16.25;;;4.40;;
73456;SDS011;61691;53.072;6.582;2023-05-06T13:22:45;15.70;;;4.40;;
73456;SDS011;61691;53.072;6.582;2023-05-06T13:25:19;15.63;;;4.10;;
73456;SDS011;61691;53.072;6.582;2023-05-06T13:27:47;15.10;;;4.43;;
73456;SDS011;61691;53.072;6.582;2023-05-06T13:30:13;15.30;;;4.68;;
73456;SDS011;61691;53.072;6.582;2023-05-06T13:32:40;15.30;;;4.95;;
73456;SDS011;61691;53.072;6.582;2023-05-06T13:35:07;15.52;;;5.20;;
73456;SDS011;61691;53.072;6.582;2023-05-06T13:37:34;16.17;;;4.97;;
73456;SDS011;61691;53.072;6.582;2023-05-06T13:40:01;15.65;;;5.47;;
73456;SDS011;61691;53.072;6.582;2023-05-06T13:42:28;15.50;;;5.55;;
73456;SDS011;61691;53.072;6.582;2023-05-06T13:44:55;17.15;;;6.78;;
73456;SDS011;61691;53.072;6.582;2023-05-06T13:47:22;16.20;;;6.28;;
73456;SDS011;61691;53.072;6.582;2023-05-06T13:49:49;16.77;;;6.75;;
73456;SDS011;61691;53.072;6.582;2023-05-06T13:52:16;17.17;;;6.80;;
73456;SDS011;61691;53.072;6.582;2023-05-06T13:54:42;19.10;;;7.28;;
73456;SDS011;61691;53.072;6.582;2023-05-06T13:57:10;18.63;;;7.60;;
73456;SDS011;61691;53.072;6.582;2023-05-06T13:59:36;16.30;;;6.30;;
73456;SDS011;61691;53.072;6.582;2023-05-06T14:02:03;19.05;;;6.22;;
73456;SDS011;61691;53.072;6.582;2023-05-06T14:04:34;17.40;;;5.07;;
73456;SDS011;61691;53.072;6.582;2023-05-06T14:07:01;17.20;;;5.28;;
73456;SDS011;61691;53.072;6.582;2023-05-06T14:09:28;16.48;;;4.68;;
73456;SDS011;61691;53.072;6.582;2023-05-06T14:11:55;15.05;;;4.10;;
73456;SDS011;61691;53.072;6.582;2023-05-06T14:14:21;16.08;;;3.92;;
73456;SDS011;61691;53.072;6.582;2023-05-06T14:16:48;12.48;;;3.58;;
73456;SDS011;61691;53.072;6.582;2023-05-06T14:19:16;12.73;;;3.60;;
73456;SDS011;61691;53.072;6.582;2023-05-06T14:21:43;14.05;;;3.40;;
73456;SDS011;61691;53.072;6.582;2023-05-06T14:24:10;13.98;;;3.80;;
73456;SDS011;61691;53.072;6.582;2023-05-06T14:26:37;13.52;;;4.03;;
73456;SDS011;61691;53.072;6.582;2023-05-06T14:29:05;14.02;;;4.65;;
73456;SDS011;61691;53.072;6.582;2023-05-06T14:31:32;15.13;;;4.80;;
73456;SDS011;61691;53.072;6.582;2023-05-06T14:34:00;16.95;;;5.78;;
73456;SDS011;61691;53.072;6.582;2023-05-06T14:36:27;17.85;;;6.15;;
73456;SDS011;61691;53.072;6.582;2023-05-06T14:38:54;16.45;;;6.30;;
73456;SDS011;61691;53.072;6.582;2023-05-06T14:41:20;17.85;;;5.72;;
73456;SDS011;61691;53.072;6.582;2023-05-06T14:43:47;16.50;;;6.32;;
73456;SDS011;61691;53.072;6.582;2023-05-06T14:46:13;17.08;;;6.30;;
73456;SDS011;61691;53.072;6.582;2023-05-06T14:48:41;17.25;;;5.68;;
73456;SDS011;61691;53.072;6.582;2023-05-06T14:51:08;17.20;;;6.53;;
73456;SDS011;61691;53.072;6.582;2023-05-06T14:53:35;17.25;;;6.63;;
73456;SDS011;61691;53.072;6.582;2023-05-06T14:56:02;16.13;;;6.15;;